Terminal Aerodrome Forecast
Issued by NWS Springfield, MO

Home | Current Version | Previous Version | Text Only | Print | Product List | Glossary On
Versions: 1 2 3 4 5 6 7 8 9 10 11 12 13 14 15 16 17 18 19 20 21 22 23 24 25 26 27
000
FTUS43 KSGF 061700
TAFSGF
TAF
KSGF 061721Z 0618/0718 19013G20KT P6SM VCTS BKN030CB
      TEMPO 0618/0621 3SM -TSRA BR OVC010CB
     FM070000 21008KT P6SM VCTS BKN050CB
     FM070500 22010KT 5SM -TSRA BR SCT020 OVC035CB WS020/23040KT
     FM071200 27009KT 4SM -RA BR OVC007=

USA.gov is the U.S. government's official web portal to all federal, state and local government web resources and services.